Time;durP1;ratioP1;P1;durP2;ratioP2;P2;SDS_P1;SDS_P2;PMS_P1;PMS_P2;Temp;Humidity;BMP_temperature;BMP_pressure;BME280_temperature;BME280_humidity;BME280_pressure;Samples;Min_cycle;Max_cycle;Signal;HPM_P1;HPM_P2
2022/03/27 00:00:50;;;;;;;43.90;20.32;;;;;;;0.99;57.94;102884.07;1645717;85;21121;-87
2022/03/27 00:03:18;;;;;;;46.50;19.90;;;;;;;0.95;58.00;102873.78;1644630;87;21034;-86
2022/03/27 00:05:44;;;;;;;45.28;20.30;;;;;;;0.94;58.06;102888.83;1645396;87;21140;-87
2022/03/27 00:08:11;;;;;;;45.23;20.95;;;;;;;0.91;58.20;102889.41;1645678;87;21550;-86
2022/03/27 00:13:23;;;;;;;46.42;20.62;;;;;;;0.86;58.46;102902.30;1649437;86;21034;-87
2022/03/27 00:15:49;;;;;;;49.98;19.70;;;;;;;0.86;58.59;102911.77;1645826;85;21033;-86
2022/03/27 00:18:16;;;;;;;50.25;20.10;;;;;;;0.83;58.62;102907.59;1661622;86;21112;-87
2022/03/27 00:20:42;;;;;;;47.58;19.52;;;;;;;0.81;58.74;102913.92;1646361;85;21099;-87
2022/03/27 00:23:09;;;;;;;51.80;20.27;;;;;;;0.79;58.85;102911.56;1645775;85;21784;-86
2022/03/27 00:25:36;;;;;;;46.77;19.87;;;;;;;0.77;58.88;102910.50;1646717;85;21089;-87
2022/03/27 00:28:03;;;;;;;47.20;20.08;;;;;;;0.74;58.94;102916.27;1643571;86;21135;-88
2022/03/27 00:30:30;;;;;;;43.63;18.55;;;;;;;0.72;59.05;102920.39;1623268;87;21283;-84
2022/03/27 00:32:57;;;;;;;40.45;19.10;;;;;;;0.70;59.12;102916.73;1624237;87;21110;-86
2022/03/27 00:35:24;;;;;;;45.43;19.60;;;;;;;0.68;59.18;102915.67;1624353;86;21776;-87
2022/03/27 00:37:52;;;;;;;46.90;20.15;;;;;;;0.66;59.26;102912.02;1645764;85;21578;-85
2022/03/27 00:40:20;;;;;;;45.30;20.25;;;;;;;0.67;59.36;102914.22;1626206;87;21080;-87
2022/03/27 00:42:47;;;;;;;45.83;20.17;;;;;;;0.62;59.37;102908.95;1647031;85;21132;-86
2022/03/27 00:45:13;;;;;;;45.50;20.52;;;;;;;0.61;59.48;102906.74;1625413;87;21104;-86
2022/03/27 00:47:44;;;;;;;41.92;20.00;;;;;;;0.57;59.54;102899.04;1624194;87;21798;-85
2022/03/27 00:50:23;;;;;;;41.23;18.90;;;;;;;0.57;59.60;102904.61;1625671;86;21096;-86
2022/03/27 00:52:49;;;;;;;40.78;18.73;;;;;;;0.55;59.69;102908.34;1626252;86;21540;-87
2022/03/27 00:55:16;;;;;;;46.50;19.57;;;;;;;0.53;59.78;102906.38;1623027;88;21150;-87
2022/03/27 00:57:43;;;;;;;49.35;19.73;;;;;;;0.51;59.83;102901.42;1625333;86;21784;-86
2022/03/27 01:00:13;;;;;;;45.92;20.55;;;;;;;0.48;59.91;102902.39;1626469;86;21792;-86
2022/03/27 01:02:41;;;;;;;43.45;18.67;;;;;;;0.47;60.00;102907.03;1634914;86;21092;-87
2022/03/27 01:05:13;;;;;;;40.83;18.62;;;;;;;0.48;60.06;102906.28;1602369;88;21119;-86
2022/03/27 01:07:39;;;;;;;42.73;18.65;;;;;;;0.47;60.13;102907.97;1623176;88;21199;-86
2022/03/27 01:10:06;;;;;;;46.18;18.98;;;;;;;0.45;60.17;102912.44;1620841;86;21097;-86
2022/03/27 01:12:39;;;;;;;36.00;17.30;;;;;;;0.43;60.26;102910.08;1626043;86;21832;-87
2022/03/27 01:15:15;;;;;;;40.78;17.05;;;;;;;0.41;60.31;102907.33;1622901;86;21650;-86
2022/03/27 01:17:42;;;;;;;44.08;17.32;;;;;;;0.39;60.44;102901.08;1624232;86;21097;-86
2022/03/27 01:20:09;;;;;;;38.58;16.32;;;;;;;0.38;60.50;102904.45;1643408;86;21031;-87
2022/03/27 01:22:35;;;;;;;39.15;17.17;;;;;;;0.38;60.56;102904.45;1649079;86;21097;-87
2022/03/27 01:25:02;;;;;;;40.95;17.23;;;;;;;0.37;60.60;102896.12;1635060;86;21773;-87
2022/03/27 01:27:30;;;;;;;35.15;16.42;;;;;;;0.38;60.69;102897.59;1614939;87;21073;-86
2022/03/27 01:29:57;;;;;;;37.55;16.00;;;;;;;0.37;60.74;102900.02;1657491;86;21153;-85
2022/03/27 01:32:24;;;;;;;43.50;16.40;;;;;;;0.36;60.81;102899.50;1634870;86;21085;-87
2022/03/27 01:34:50;;;;;;;36.35;15.88;;;;;;;0.35;60.90;102901.54;1634508;86;21173;-87
2022/03/27 01:37:17;;;;;;;39.42;16.93;;;;;;;0.34;60.95;102899.73;1624258;86;21675;-86
2022/03/27 01:39:44;;;;;;;41.13;16.85;;;;;;;0.32;61.01;102907.69;1623229;88;21079;-86
2022/03/27 01:42:11;;;;;;;39.35;16.70;;;;;;;0.31;61.04;102907.18;1625636;86;21064;-86
2022/03/27 01:44:37;;;;;;;38.25;15.63;;;;;;;0.26;61.12;102907.98;1626954;88;21638;-87
2022/03/27 01:47:05;;;;;;;41.37;15.90;;;;;;;0.25;61.18;102904.88;1636691;87;21141;-87
2022/03/27 01:49:32;;;;;;;35.95;16.30;;;;;;;0.24;61.25;102902.13;1635044;86;22645;-87
2022/03/27 01:51:58;;;;;;;35.30;16.48;;;;;;;0.22;61.32;102908.45;1637892;87;21065;-87
2022/03/27 01:54:25;;;;;;;37.55;16.90;;;;;;;0.21;61.38;102911.81;1629149;86;21057;-87
2022/03/27 01:56:52;;;;;;;35.52;15.08;;;;;;;0.21;61.45;102905.70;1639334;86;21611;-87
2022/03/27 01:59:21;;;;;;;39.40;15.55;;;;;;;0.18;61.47;102917.97;1624617;88;21068;-87
2022/03/27 02:01:48;;;;;;;37.67;16.10;;;;;;;0.15;61.57;102917.64;1625918;88;21438;-85
2022/03/27 02:04:15;;;;;;;40.25;16.42;;;;;;;0.12;61.64;102923.44;1640381;87;21038;-88
2022/03/27 02:06:43;;;;;;;41.45;17.10;;;;;;;0.10;61.77;102922.76;1636456;87;21054;-88
2022/03/27 02:09:12;;;;;;;35.38;15.78;;;;;;;0.08;61.82;102922.59;1636195;87;21114;-87
2022/03/27 02:11:39;;;;;;;37.75;16.15;;;;;;;0.07;61.95;102920.75;1635809;86;21073;-87
2022/03/27 02:14:06;;;;;;;40.45;16.73;;;;;;;0.07;62.01;102923.34;1626144;86;21777;-87
2022/03/27 02:16:33;;;;;;;47.38;17.30;;;;;;;0.07;62.11;102925.92;1625568;87;21074;-87
2022/03/27 02:18:59;;;;;;;37.03;16.12;;;;;;;0.08;62.17;102922.98;1624501;86;21609;-87
2022/03/27 02:21:26;;;;;;;37.48;16.30;;;;;;;0.07;62.22;102919.45;1628694;86;21572;-88
2022/03/27 02:23:53;;;;;;;37.15;15.48;;;;;;;0.05;62.19;102922.27;1640461;86;21080;-86
2022/03/27 02:26:19;;;;;;;37.95;16.35;;;;;;;0.03;62.29;102925.08;1643904;86;21813;-87
2022/03/27 02:28:46;;;;;;;39.25;15.78;;;;;;;0.01;62.35;102917.55;1624616;86;21163;-86
2022/03/27 02:31:13;;;;;;;40.58;16.73;;;;;;;0.01;62.38;102920.52;1640227;86;21637;-86
2022/03/27 02:33:39;;;;;;;34.43;15.90;;;;;;;-0.01;62.46;102922.95;1628481;86;21101;-86
2022/03/27 02:36:08;;;;;;;36.73;14.45;;;;;;;-0.03;62.56;102927.05;1639819;87;21077;-86
2022/03/27 02:38:35;;;;;;;34.58;15.20;;;;;;;-0.04;62.65;102931.68;1626014;87;22330;-86
2022/03/27 02:41:03;;;;;;;39.25;16.32;;;;;;;-0.04;62.71;102935.21;1625734;86;21153;-86
2022/03/27 02:43:30;;;;;;;32.67;14.35;;;;;;;-0.05;62.76;102933.75;1626420;86;21150;-87
2022/03/27 02:45:57;;;;;;;38.45;15.90;;;;;;;-0.04;62.78;102945.92;1639264;86;21362;-87
2022/03/27 02:48:24;;;;;;;33.08;14.90;;;;;;;-0.06;62.88;102940.97;1624438;87;21074;-87
2022/03/27 02:50:50;;;;;;;31.80;14.40;;;;;;;-0.06;62.91;102944.84;1638363;86;21827;-85
2022/03/27 02:53:17;;;;;;;37.88;14.43;;;;;;;-0.08;62.98;102941.19;1649308;86;21081;-86
2022/03/27 02:55:44;;;;;;;34.20;14.35;;;;;;;-0.09;63.05;102936.79;1647503;86;21006;-86
2022/03/27 02:58:10;;;;;;;29.02;14.28;;;;;;;-0.09;63.11;102943.27;1637905;86;21066;-86
2022/03/27 03:00:38;;;;;;;36.23;14.95;;;;;;;-0.09;63.19;102952.33;1636937;86;21077;-86
2022/03/27 03:03:05;;;;;;;33.78;15.05;;;;;;;-0.11;63.20;102950.86;1619139;86;22618;-87
2022/03/27 03:05:31;;;;;;;33.58;14.05;;;;;;;-0.10;63.29;102952.67;1648262;86;21113;-86
2022/03/27 03:08:01;;;;;;;30.90;14.23;;;;;;;-0.11;63.34;102943.45;1638593;86;21580;-87
2022/03/27 03:10:28;;;;;;;32.28;14.45;;;;;;;-0.12;63.38;102948.11;1626366;87;21590;-88
2022/03/27 03:12:55;;;;;;;33.55;13.45;;;;;;;-0.11;63.42;102944.75;1625024;88;21152;-88
2022/03/27 03:15:23;;;;;;;35.55;13.93;;;;;;;-0.15;63.48;102931.89;1625484;86;22718;-88
2022/03/27 03:17:50;;;;;;;28.57;12.98;;;;;;;-0.11;63.55;102945.69;1625366;86;21670;-88
2022/03/27 03:20:19;;;;;;;33.80;14.18;;;;;;;-0.10;63.55;102949.18;1625542;88;22404;-88
2022/03/27 03:22:46;;;;;;;32.50;12.53;;;;;;;-0.12;63.57;102945.13;1624572;88;21104;-89
2022/03/27 03:25:14;;;;;;;28.77;12.45;;;;;;;-0.11;63.66;102941.80;1596553;88;21124;-88
2022/03/27 03:27:41;;;;;;;38.17;12.58;;;;;;;-0.11;63.69;102948.63;1623317;88;21809;-87
2022/03/27 03:30:10;;;;;;;30.75;11.78;;;;;;;-0.10;63.68;102946.59;1628784;86;21080;-87
2022/03/27 03:32:37;;;;;;;25.48;11.35;;;;;;;-0.10;63.74;102933.65;1639033;86;21055;-87
2022/03/27 03:35:05;;;;;;;28.02;11.38;;;;;;;-0.09;63.75;102934.20;1625353;88;21686;-88
2022/03/27 03:37:32;;;;;;;23.73;10.75;;;;;;;-0.09;63.78;102929.93;1625699;86;21139;-87
2022/03/27 03:39:59;;;;;;;24.98;11.00;;;;;;;-0.10;63.78;102924.59;1626393;86;21816;-87
2022/03/27 03:42:26;;;;;;;23.10;10.13;;;;;;;-0.12;63.84;102920.93;1635205;86;21137;-87
2022/03/27 03:44:53;;;;;;;26.52;9.58;;;;;;;-0.11;63.89;102921.09;1636804;86;21030;-87
2022/03/27 03:47:19;;;;;;;26.68;10.23;;;;;;;-0.10;63.92;102918.12;1638640;85;21648;-87
2022/03/27 03:49:46;;;;;;;23.22;10.32;;;;;;;-0.10;64.00;102915.53;1646277;86;21092;-87
2022/03/27 03:52:13;;;;;;;25.80;9.30;;;;;;;-0.10;64.00;102929.38;1622262;86;21773;-88
2022/03/27 03:54:39;;;;;;;20.00;8.83;;;;;;;-0.11;64.09;102926.27;1647134;85;21092;-88
2022/03/27 03:57:06;;;;;;;23.75;8.85;;;;;;;-0.09;64.15;102939.38;1645912;85;21046;-88
2022/03/27 03:59:33;;;;;;;18.23;8.38;;;;;;;-0.09;64.21;102941.58;1645089;85;21582;-87
2022/03/27 04:02:00;;;;;;;22.48;8.20;;;;;;;-0.08;64.27;102951.55;1647243;85;21080;-87
2022/03/27 04:04:27;;;;;;;20.95;8.15;;;;;;;-0.07;64.31;102953.00;1647195;85;22648;-87
2022/03/27 04:06:54;;;;;;;18.70;8.03;;;;;;;-0.05;64.34;102957.05;1647168;85;21063;-87
2022/03/27 04:09:21;;;;;;;21.73;7.97;;;;;;;-0.05;64.39;102958.34;1645528;85;21060;-88
2022/03/27 04:11:48;;;;;;;20.23;8.68;;;;;;;-0.04;64.42;102962.75;1644910;85;21108;-88
2022/03/27 04:14:15;;;;;;;18.20;8.55;;;;;;;-0.05;64.45;102959.64;1655263;85;21622;-88
2022/03/27 04:16:41;;;;;;;23.77;8.63;;;;;;;-0.06;64.45;102956.11;1646375;86;21762;-88
2022/03/27 04:19:08;;;;;;;20.30;9.18;;;;;;;-0.06;64.48;102953.91;1646044;87;21129;-88
2022/03/27 04:21:35;;;;;;;22.60;9.53;;;;;;;-0.05;64.51;102953.17;1646489;86;21148;-87
2022/03/27 04:24:04;;;;;;;23.57;9.65;;;;;;;-0.07;64.54;102952.09;1646454;87;21638;-88
2022/03/27 04:26:32;;;;;;;22.10;9.33;;;;;;;-0.07;64.60;102956.89;1644766;86;21033;-87
2022/03/27 04:28:58;;;;;;;22.70;9.00;;;;;;;-0.09;64.69;102950.64;1646629;86;21249;-87
2022/03/27 04:31:25;;;;;;;22.95;9.53;;;;;;;-0.10;64.76;102953.06;1647096;87;21084;-87
2022/03/27 04:33:52;;;;;;;22.13;9.53;;;;;;;-0.10;64.83;102956.56;1646039;86;21117;-86
2022/03/27 04:36:18;;;;;;;22.62;8.95;;;;;;;-0.09;64.86;102960.09;1646210;87;21057;-86
2022/03/27 04:38:45;;;;;;;22.90;9.55;;;;;;;-0.07;64.88;102966.34;1647090;87;21035;-86
2022/03/27 04:41:11;;;;;;;19.42;9.50;;;;;;;-0.04;64.90;102967.58;1646538;87;21758;-87
2022/03/27 04:43:38;;;;;;;22.90;8.83;;;;;;;0.01;64.93;102969.33;1646183;87;22213;-86
2022/03/27 04:46:07;;;;;;;20.97;9.30;;;;;;;0.12;64.98;102967.84;1623912;87;21107;-86
2022/03/27 04:48:34;;;;;;;22.40;9.43;;;;;;;0.33;65.07;102967.83;1623480;86;21654;-86
2022/03/27 04:51:01;;;;;;;23.00;9.30;;;;;;;0.73;65.22;102960.17;1623524;88;21112;-85
2022/03/27 04:53:27;;;;;;;22.35;9.83;;;;;;;1.42;65.34;102961.80;1624036;88;22605;-86
2022/03/27 04:55:54;;;;;;;21.90;9.43;;;;;;;2.37;65.23;102958.69;1623897;88;21163;-86
2022/03/27 04:58:21;;;;;;;22.07;9.18;;;;;;;3.26;64.35;102961.63;1623562;88;21053;-87
2022/03/27 05:00:49;;;;;;;22.77;11.05;;;;;;;3.57;63.08;102956.18;1623692;88;21156;-86
2022/03/27 05:03:16;;;;;;;21.25;8.83;;;;;;;3.68;62.05;102961.95;1624120;88;21544;-87
2022/03/27 05:05:43;;;;;;;21.27;9.48;;;;;;;3.70;61.37;102966.00;1624277;87;21787;-87
2022/03/27 05:08:10;;;;;;;22.82;9.48;;;;;;;3.75;61.10;102967.69;1623590;88;21062;-86
2022/03/27 05:10:38;;;;;;;17.67;8.58;;;;;;;3.80;60.81;102958.20;1623658;88;21696;-86
2022/03/27 05:13:05;;;;;;;20.08;8.78;;;;;;;3.82;60.45;102955.34;1603250;88;21051;-86
2022/03/27 05:15:32;;;;;;;17.65;8.18;;;;;;;3.84;60.21;102956.78;1623779;88;21116;-86
2022/03/27 05:17:59;;;;;;;21.15;8.63;;;;;;;3.82;59.91;102968.36;1623614;88;22620;-85
2022/03/27 05:20:27;;;;;;;17.65;8.68;;;;;;;3.74;59.74;102976.30;1619044;88;21244;-86
2022/03/27 05:22:56;;;;;;;18.85;8.10;;;;;;;3.61;59.61;102981.70;1619050;88;21075;-86
2022/03/27 05:25:23;;;;;;;21.23;8.60;;;;;;;3.49;59.47;102994.56;1624540;88;21045;-90
2022/03/27 05:27:53;;;;;;;20.02;7.87;;;;;;;3.36;59.40;103002.05;1624914;88;21108;-85
2022/03/27 05:30:21;;;;;;;16.42;7.42;;;;;;;3.27;59.43;102991.70;1621284;88;21806;-85
2022/03/27 05:32:48;;;;;;;19.95;8.30;;;;;;;3.22;59.47;102984.25;1596582;88;21172;-86
2022/03/27 05:35:15;;;;;;;19.42;8.10;;;;;;;3.22;59.56;102979.95;1597564;89;21557;-87
2022/03/27 05:37:49;;;;;;;17.23;7.83;;;;;;;3.23;59.64;102984.77;1623724;88;21105;-87
2022/03/27 05:40:18;;;;;;;16.80;7.92;;;;;;;3.27;59.69;102976.09;1599558;88;21102;-87
2022/03/27 05:42:48;;;;;;;13.58;7.00;;;;;;;3.35;59.72;102966.76;1645406;87;22818;-87
2022/03/27 05:45:15;;;;;;;18.12;8.30;;;;;;;3.40;59.67;102975.50;1646830;86;21061;-88
2022/03/27 05:47:42;;;;;;;19.37;7.75;;;;;;;3.45;59.60;102990.22;1646384;87;21286;-88
2022/03/27 05:50:14;;;;;;;19.02;7.37;;;;;;;3.50;59.56;102986.34;1598392;89;21359;-87
2022/03/27 05:52:42;;;;;;;12.58;7.08;;;;;;;3.54;59.46;102987.55;1598505;89;21646;-84
2022/03/27 05:55:09;;;;;;;19.27;7.35;;;;;;;3.55;59.23;102990.29;1622348;86;22528;-77
2022/03/27 05:57:36;;;;;;;17.42;6.78;;;;;;;3.59;59.17;102998.89;1615201;87;21046;-78
2022/03/27 06:00:05;;;;;;;14.55;6.72;;;;;;;3.69;59.16;103003.22;1636258;87;21065;-78
2022/03/27 06:02:32;;;;;;;18.37;7.72;;;;;;;3.81;59.14;103005.63;1636018;87;21599;-77
2022/03/27 06:04:59;;;;;;;16.93;7.05;;;;;;;3.89;59.06;103007.61;1636354;87;21132;-78
2022/03/27 06:07:25;;;;;;;15.10;7.62;;;;;;;3.91;58.96;102981.30;1636500;87;21913;-79
2022/03/27 06:09:52;;;;;;;20.43;7.83;;;;;;;4.12;58.81;102996.98;1634377;87;21058;-79
2022/03/27 06:12:19;;;;;;;19.07;7.25;;;;;;;4.22;58.74;103001.84;1636622;87;21155;-79
2022/03/27 06:14:45;;;;;;;14.85;7.12;;;;;;;4.32;58.57;102999.63;1636436;87;21145;-79
2022/03/27 06:17:12;;;;;;;17.75;7.78;;;;;;;4.42;58.46;102995.72;1636622;87;21124;-79
2022/03/27 06:19:41;;;;;;;19.12;8.38;;;;;;;4.58;58.43;103000.93;1636261;87;21104;-79
2022/03/27 06:22:10;;;;;;;19.85;8.13;;;;;;;4.73;58.29;102996.11;1636586;87;21629;-79
2022/03/27 06:24:38;;;;;;;16.82;7.45;;;;;;;4.87;58.16;102993.88;1636192;86;21096;-79
2022/03/27 06:27:05;;;;;;;18.50;8.20;;;;;;;5.00;57.93;103002.36;1636744;87;21132;-79
2022/03/27 06:29:34;;;;;;;15.75;7.33;;;;;;;5.06;57.72;103006.77;1636915;87;21049;-79
2022/03/27 06:32:01;;;;;;;14.45;7.50;;;;;;;5.15;57.57;103012.26;1635139;87;21792;-80
2022/03/27 06:34:31;;;;;;;15.05;7.22;;;;;;;5.24;57.38;103019.16;1636451;87;21260;-79
2022/03/27 06:36:58;;;;;;;15.28;7.08;;;;;;;5.33;57.29;103026.84;1636477;87;21070;-79
2022/03/27 06:39:33;;;;;;;14.05;6.17;;;;;;;5.45;57.21;103025.63;1636449;86;21080;-81
2022/03/27 06:42:00;;;;;;;16.48;6.62;;;;;;;5.55;56.89;103028.20;1635833;87;21096;-80
2022/03/27 06:44:27;;;;;;;12.68;6.42;;;;;;;5.67;56.77;103031.30;1636283;87;21168;-79
2022/03/27 06:47:00;;;;;;;12.82;5.67;;;;;;;5.77;56.58;103036.09;1636173;87;21128;-80
2022/03/27 06:49:27;;;;;;;11.03;5.28;;;;;;;5.81;56.10;103029.02;1637421;86;21121;-80
2022/03/27 06:51:54;;;;;;;9.55;5.05;;;;;;;5.89;56.23;103037.47;1624551;88;21665;-80
2022/03/27 06:54:21;;;;;;;13.20;5.60;;;;;;;6.08;56.22;103028.16;1624727;88;21131;-80
2022/03/27 06:56:48;;;;;;;9.98;5.55;;;;;;;6.30;56.12;103028.13;1625089;88;22014;-81
2022/03/27 06:59:15;;;;;;;11.12;5.05;;;;;;;6.54;56.01;103023.91;1624292;88;22229;-82
2022/03/27 07:04:26;;;;;;;16.07;8.10;;;;;;;6.85;55.36;103010.97;1625154;88;21170;-81
2022/03/27 07:06:53;;;;;;;15.60;7.83;;;;;;;7.02;55.30;103009.26;1624481;88;21124;-83
2022/03/27 07:09:20;;;;;;;16.93;8.83;;;;;;;7.14;55.12;103001.41;1625341;88;21769;-83
2022/03/27 07:11:47;;;;;;;18.45;8.15;;;;;;;7.29;54.87;103003.85;1624667;86;21185;-81
2022/03/27 07:14:14;;;;;;;11.80;6.20;;;;;;;7.47;54.77;103004.70;1624767;88;21143;-80
2022/03/27 07:16:41;;;;;;;11.30;4.87;;;;;;;7.61;54.59;103001.39;1625408;86;21144;-85
2022/03/27 07:19:10;;;;;;;10.58;4.45;;;;;;;7.77;54.22;103005.65;1601332;88;21203;-81
2022/03/27 07:21:36;;;;;;;9.93;4.28;;;;;;;7.90;54.17;103006.14;1625300;88;21752;-81
2022/03/27 07:24:05;;;;;;;8.23;4.05;;;;;;;8.09;53.85;103004.44;1638790;87;21037;-85
2022/03/27 07:26:32;;;;;;;6.80;3.60;;;;;;;8.22;53.66;103006.22;1625276;88;21088;-82
2022/03/27 07:28:59;;;;;;;7.80;3.40;;;;;;;8.34;53.19;103007.06;1638698;87;21253;-82
2022/03/27 07:31:26;;;;;;;5.67;2.75;;;;;;;8.42;52.22;102997.55;1625333;88;21077;-82
2022/03/27 07:33:55;;;;;;;5.03;3.10;;;;;;;8.39;51.58;103000.84;1625204;86;21774;-82
2022/03/27 07:36:21;;;;;;;9.15;4.47;;;;;;;8.37;50.95;102998.48;1624121;86;21589;-82
2022/03/27 07:38:49;;;;;;;10.55;4.95;;;;;;;8.33;50.99;102998.70;1610793;86;33569;-82
2022/03/27 07:41:16;;;;;;;9.28;3.50;;;;;;;8.30;50.68;103003.72;1638451;86;21069;-82
2022/03/27 07:43:43;;;;;;;5.92;2.95;;;;;;;8.30;50.30;102998.48;1635479;86;21124;-82
2022/03/27 07:46:10;;;;;;;4.95;2.25;;;;;;;8.28;49.64;103006.64;1638029;86;21650;-82
2022/03/27 07:48:36;;;;;;;3.87;2.02;;;;;;;8.30;49.46;103005.03;1640657;87;21108;-82
2022/03/27 07:51:04;;;;;;;6.70;3.30;;;;;;;8.31;48.98;103003.31;1646287;86;21096;-82
2022/03/27 07:53:31;;;;;;;9.45;2.95;;;;;;;8.29;48.80;102999.27;1645872;87;21033;-82
2022/03/27 07:55:57;;;;;;;4.72;2.20;;;;;;;8.29;48.69;102997.05;1646643;86;21083;-82
2022/03/27 07:58:24;;;;;;;6.72;1.85;;;;;;;8.22;48.28;102975.11;1646352;87;21762;-82
2022/03/27 08:00:50;;;;;;;7.33;3.85;;;;;;;8.29;47.99;102995.33;1646010;86;21673;-82
2022/03/27 08:03:17;;;;;;;7.62;4.20;;;;;;;8.38;47.81;102988.09;1645548;87;21045;-82
2022/03/27 08:05:44;;;;;;;5.90;2.00;;;;;;;8.48;47.43;102986.16;1645698;85;21189;-82
2022/03/27 08:08:10;;;;;;;5.47;2.80;;;;;;;8.60;47.38;102989.64;1646117;86;21531;-81
2022/03/27 08:10:37;;;;;;;5.50;2.58;;;;;;;8.66;47.05;102990.05;1645359;86;21767;-82
2022/03/27 08:13:03;;;;;;;4.05;1.95;;;;;;;8.65;46.76;102992.56;1626828;87;21076;-76
2022/03/27 08:15:30;;;;;;;3.00;1.50;;;;;;;8.72;46.52;102989.56;1645475;87;21092;-76
2022/03/27 08:17:57;;;;;;;2.90;1.67;;;;;;;8.85;46.24;102979.09;1646092;86;21733;-76
2022/03/27 08:20:25;;;;;;;4.53;1.70;;;;;;;9.04;46.00;102981.23;1646037;86;21128;-75
2022/03/27 08:22:52;;;;;;;3.33;2.10;;;;;;;9.19;45.72;102976.50;1623010;88;21822;-80
2022/03/27 08:27:57;;;;;;;6.60;2.00;;;;;;;9.34;45.19;102969.21;1610925;88;21102;-83
2022/03/27 08:30:23;;;;;;;7.03;2.17;;;;;;;9.43;44.96;102969.33;1596644;89;21115;-82
2022/03/27 08:32:50;;;;;;;7.33;2.80;;;;;;;9.46;44.59;102960.30;1577045;89;21139;-83
2022/03/27 08:35:17;;;;;;;7.42;2.72;;;;;;;9.49;44.08;102956.16;1623938;88;22641;-83
2022/03/27 08:37:43;;;;;;;3.95;1.62;;;;;;;9.54;43.72;102961.73;1623811;87;21147;-83
2022/03/27 08:40:10;;;;;;;3.80;2.27;;;;;;;9.52;43.41;102952.42;1622490;87;21053;-83
2022/03/27 08:42:37;;;;;;;3.20;1.42;;;;;;;9.58;43.32;102952.33;1623816;87;21198;-83
2022/03/27 08:45:04;;;;;;;2.40;1.20;;;;;;;9.70;43.32;102951.39;1602511;88;21135;-86
2022/03/27 08:47:34;;;;;;;3.27;1.22;;;;;;;9.78;42.85;102941.36;1622056;88;21757;-90
2022/03/27 08:50:14;;;;;;;5.37;1.98;;;;;;;9.81;42.54;102945.48;1639649;87;21107;-79
2022/03/27 08:52:54;;;;;;;4.17;2.80;;;;;;;9.79;42.52;102933.05;1637840;87;21104;-83
2022/03/27 08:55:40;;;;;;;2.47;1.42;;;;;;;9.85;42.45;102930.42;1637628;87;21349;-85
2022/03/27 08:58:09;;;;;;;4.72;2.20;;;;;;;9.85;42.19;102915.95;1638209;87;21531;-84
2022/03/27 09:00:36;;;;;;;2.45;1.27;;;;;;;9.86;42.10;102909.86;1638520;87;21779;-84
2022/03/27 09:03:05;;;;;;;3.05;1.62;;;;;;;9.91;41.79;102911.48;1641595;86;21156;-84
2022/03/27 09:05:34;;;;;;;4.65;1.65;;;;;;;9.89;41.65;102906.50;1649564;86;21112;-83
2022/03/27 09:08:07;;;;;;;6.35;2.60;;;;;;;9.93;41.50;102901.95;1643334;86;21124;-83
2022/03/27 09:10:34;;;;;;;7.08;2.52;;;;;;;10.03;41.66;102902.12;1639439;86;21144;-83
2022/03/27 09:13:00;;;;;;;9.20;3.45;;;;;;;10.11;41.71;102900.44;1640790;86;22905;-83
2022/03/27 09:15:27;;;;;;;6.45;2.77;;;;;;;10.24;41.58;102896.84;1644655;86;21026;-83
2022/03/27 09:18:09;;;;;;;5.45;2.17;;;;;;;10.41;41.60;102896.56;1638822;86;21109;-83
2022/03/27 09:20:47;;;;;;;5.08;1.98;;;;;;;10.63;41.62;102887.33;1647220;86;21088;-84
2022/03/27 09:23:30;;;;;;;5.42;2.17;;;;;;;10.82;41.37;102882.73;1647952;86;21100;-84
2022/03/27 09:26:03;;;;;;;4.15;2.02;;;;;;;11.06;41.26;102880.19;1639811;86;21841;-84
2022/03/27 09:28:35;;;;;;;3.83;2.08;;;;;;;11.21;40.91;102880.57;1645500;86;21104;-83
2022/03/27 09:31:22;;;;;;;3.65;2.15;;;;;;;11.37;40.80;102875.73;1638923;86;21088;-84
2022/03/27 09:33:59;;;;;;;9.98;2.37;;;;;;;11.53;40.70;102867.86;1638071;86;21077;-83
2022/03/27 09:36:32;;;;;;;5.72;2.67;;;;;;;11.73;40.63;102873.30;1638594;86;21097;-83
2022/03/27 09:39:16;;;;;;;5.40;2.65;;;;;;;11.91;40.43;102874.75;1642848;86;21809;-83
2022/03/27 09:41:45;;;;;;;;;;;;;;;11.99;40.05;102874.73;1654101;85;21560;-82
2022/03/27 09:44:25;;;;;;;6.62;2.22;;;;;;;12.18;39.74;102862.09;1656397;86;20598;-82
2022/03/27 09:47:05;;;;;;;14.93;6.80;;;;;;;12.25;39.53;102850.60;1635691;86;21681;-82
2022/03/27 09:49:40;;;;;;;12.50;6.50;;;;;;;12.43;39.54;102852.40;1640793;86;21018;-83
2022/03/27 09:52:19;;;;;;;3.90;2.15;;;;;;;12.63;39.31;102846.39;1647048;86;21806;-83
2022/03/27 09:54:55;;;;;;;4.55;2.37;;;;;;;12.75;38.98;102840.80;1644755;86;21076;-83
2022/03/27 09:57:28;;;;;;;4.80;2.83;;;;;;;12.84;38.56;102841.69;1652655;84;21100;-83
2022/03/27 09:59:57;;;;;;;17.07;9.87;;;;;;;12.84;38.52;102843.91;1650453;85;21133;-83
2022/03/27 10:02:29;;;;;;;5.37;3.00;;;;;;;12.90;38.22;102839.33;1627237;86;21867;-83
2022/03/27 10:05:02;;;;;;;6.45;2.70;;;;;;;12.95;37.90;102828.58;1627344;86;22637;-82
2022/03/27 10:07:44;;;;;;;8.88;3.00;;;;;;;13.03;37.74;102827.20;1642455;86;21120;-82
2022/03/27 10:10:14;;;;;;;9.50;5.10;;;;;;;13.10;37.49;102819.55;1615863;86;21088;-83
2022/03/27 10:12:43;;;;;;;6.87;4.15;;;;;;;13.15;37.40;102819.36;1635809;86;21752;-83
2022/03/27 10:15:21;;;;;;;6.60;2.77;;;;;;;13.21;37.36;102817.00;1629091;86;21053;-83
2022/03/27 10:18:13;;;;;;;3.83;2.50;;;;;;;13.27;37.06;102813.73;1625610;86;21798;-83
2022/03/27 10:20:41;;;;;;;5.12;2.75;;;;;;;13.23;36.75;102813.61;1616247;88;21080;-82
2022/03/27 10:23:12;;;;;;;6.53;3.52;;;;;;;13.25;36.70;102811.44;1623265;88;21160;-82
2022/03/27 10:25:44;;;;;;;5.75;3.92;;;;;;;13.18;36.66;102801.01;1629455;86;21148;-81
2022/03/27 10:28:11;;;;;;;6.65;4.33;;;;;;;13.29;36.87;102798.84;1623882;85;21749;-82
2022/03/27 10:30:38;;;;;;;13.25;7.05;;;;;;;13.32;36.65;102803.89;1623534;87;21765;-82
2022/03/27 10:33:07;;;;;;;9.30;4.67;;;;;;;13.33;36.54;102800.43;1623910;86;21073;-82
2022/03/27 10:35:48;;;;;;;9.25;4.45;;;;;;;13.32;36.49;102795.96;1626264;87;21135;-82
2022/03/27 10:38:35;;;;;;;6.78;3.30;;;;;;;13.39;36.48;102791.45;1619589;86;21199;-82
2022/03/27 10:41:31;;;;;;;9.23;3.77;;;;;;;13.49;36.39;102784.83;1594988;88;21412;-82
2022/03/27 10:44:36;;;;;;;5.50;3.00;;;;;;;13.59;36.40;102787.08;1595604;88;21801;-82
2022/03/27 10:47:18;;;;;;;7.65;3.50;;;;;;;13.74;36.08;102767.01;1592641;88;21113;-82
2022/03/27 10:50:08;;;;;;;6.15;2.25;;;;;;;13.89;36.14;102757.91;1596161;89;21085;-82
2022/03/27 10:52:39;;;;;;;6.55;1.85;;;;;;;13.96;35.53;102766.61;1594642;88;21111;-83
2022/03/27 10:55:14;;;;;;;3.12;1.70;;;;;;;13.96;35.31;102763.96;1592991;89;21088;-83
2022/03/27 10:57:46;;;;;;;5.25;1.72;;;;;;;14.01;35.13;102765.08;1596053;88;21788;-83
2022/03/27 11:00:14;;;;;;;4.65;2.30;;;;;;;13.99;34.97;102752.20;1623544;87;21107;-83
2022/03/27 11:02:52;;;;;;;8.35;3.60;;;;;;;14.00;34.74;102755.30;1623268;88;21064;-82
2022/03/27 11:05:37;;;;;;;27.40;13.58;;;;;;;13.96;34.48;102744.11;1622740;88;21136;-81
2022/03/27 11:08:22;;;;;;;47.55;19.12;;;;;;;13.80;34.29;102738.16;1620247;87;21159;-83
2022/03/27 11:10:59;;;;;;;24.65;10.80;;;;;;;13.66;34.45;102736.63;1619440;88;21853;-83
2022/03/27 11:13:32;;;;;;;7.78;3.70;;;;;;;13.59;34.45;102731.94;1622461;86;21135;-84
2022/03/27 11:16:11;;;;;;;8.08;3.05;;;;;;;13.58;34.31;102726.14;1623494;88;21147;-83
2022/03/27 11:18:43;;;;;;;5.55;2.60;;;;;;;13.54;34.38;102726.84;1620621;88;21145;-84
2022/03/27 11:21:14;;;;;;;5.95;2.98;;;;;;;13.63;34.39;102717.06;1622628;88;21151;-82
2022/03/27 11:23:42;;;;;;;7.30;2.62;;;;;;;13.77;34.50;102706.67;1621589;88;21246;-82
2022/03/27 11:26:29;;;;;;;5.15;2.02;;;;;;;13.92;34.20;102699.38;1620902;87;21125;-83
2022/03/27 11:28:59;;;;;;;6.28;2.30;;;;;;;13.98;33.96;102700.06;1585970;89;21102;-82
2022/03/27 11:31:34;;;;;;;5.97;2.83;;;;;;;13.95;33.91;102687.61;1595367;88;21737;-83
2022/03/27 11:34:19;;;;;;;5.67;2.15;;;;;;;13.89;33.83;102674.13;1595810;88;21588;-83
2022/03/27 11:36:52;;;;;;;6.03;2.30;;;;;;;13.88;33.82;102658.17;1622282;86;22695;-83
2022/03/27 11:39:36;;;;;;;5.87;2.35;;;;;;;13.85;33.82;102654.06;1602019;87;21167;-83